sensor_id;sensor_type;location;lat;lon;timestamp;pressure;altitude;pressure_sealevel;temperature;humidity
11971;BME280;6045;42.682;23.294;2023-10-09T00:02:02;95110.50;;;19.15;57.32
11971;BME280;6045;42.682;23.294;2023-10-09T00:04:31;95113.75;;;19.22;57.56
11971;BME280;6045;42.682;23.294;2023-10-09T00:07:02;95106.72;;;19.16;57.42
11971;BME280;6045;42.682;23.294;2023-10-09T00:09:33;95104.56;;;19.23;57.69
11971;BME280;6045;42.682;23.294;2023-10-09T00:12:14;95112.97;;;19.11;56.83
11971;BME280;6045;42.682;23.294;2023-10-09T00:14:41;95118.09;;;19.08;57.29
11971;BME280;6045;42.682;23.294;2023-10-09T00:17:14;95118.38;;;19.06;58.31
11971;BME280;6045;42.682;23.294;2023-10-09T00:19:44;95109.16;;;19.02;58.52
11971;BME280;6045;42.682;23.294;2023-10-09T00:22:14;95111.84;;;18.92;57.90
11971;BME280;6045;42.682;23.294;2023-10-09T00:24:52;95116.47;;;18.97;57.68
11971;BME280;6045;42.682;23.294;2023-10-09T00:27:38;95110.78;;;19.03;58.98
11971;BME280;6045;42.682;23.294;2023-10-09T00:30:09;95114.56;;;18.97;57.97
11971;BME280;6045;42.682;23.294;2023-10-09T00:32:40;95106.44;;;18.87;57.38
11971;BME280;6045;42.682;23.294;2023-10-09T00:35:15;95104.81;;;18.81;57.90
11971;BME280;6045;42.682;23.294;2023-10-09T00:38:00;95108.56;;;18.75;59.70
11971;BME280;6045;42.682;23.294;2023-10-09T00:40:40;95113.47;;;18.78;58.86
11971;BME280;6045;42.682;23.294;2023-10-09T00:43:13;95108.03;;;18.78;59.21
11971;BME280;6045;42.682;23.294;2023-10-09T00:45:40;95098.31;;;18.87;58.53
11971;BME280;6045;42.682;23.294;2023-10-09T00:48:09;95096.66;;;18.91;58.21
11971;BME280;6045;42.682;23.294;2023-10-09T00:50:39;95095.03;;;18.80;57.04
11971;BME280;6045;42.682;23.294;2023-10-09T00:53:13;95105.03;;;18.75;58.16
11971;BME280;6045;42.682;23.294;2023-10-09T00:55:44;95112.09;;;18.76;57.77
11971;BME280;6045;42.682;23.294;2023-10-09T00:58:22;95115.59;;;18.66;57.43
11971;BME280;6045;42.682;23.294;2023-10-09T01:00:52;95113.41;;;18.63;57.51
11971;BME280;6045;42.682;23.294;2023-10-09T01:03:20;95117.50;;;18.66;58.27
11971;BME280;6045;42.682;23.294;2023-10-09T01:05:48;95123.16;;;18.59;57.94
11971;BME280;6045;42.682;23.294;2023-10-09T01:08:22;95134.81;;;18.55;58.92
11971;BME280;6045;42.682;23.294;2023-10-09T01:10:56;95134.81;;;18.55;58.18
11971;BME280;6045;42.682;23.294;2023-10-09T01:13:36;95142.31;;;18.42;58.85
11971;BME280;6045;42.682;23.294;2023-10-09T01:16:18;95154.97;;;18.27;58.69
11971;BME280;6045;42.682;23.294;2023-10-09T01:18:48;95151.72;;;18.25;58.57
11971;BME280;6045;42.682;23.294;2023-10-09T01:21:15;95157.69;;;18.27;58.33
11971;BME280;6045;42.682;23.294;2023-10-09T01:23:45;95153.31;;;18.16;57.97
11971;BME280;6045;42.682;23.294;2023-10-09T01:26:28;95154.34;;;18.10;57.46
11971;BME280;6045;42.682;23.294;2023-10-09T01:28:58;95161.78;;;17.88;58.50
11971;BME280;6045;42.682;23.294;2023-10-09T01:31:25;95169.06;;;17.82;59.15
11971;BME280;6045;42.682;23.294;2023-10-09T01:33:53;95177.13;;;17.72;58.49
11971;BME280;6045;42.682;23.294;2023-10-09T01:36:25;95184.34;;;17.61;57.95
11971;BME280;6045;42.682;23.294;2023-10-09T01:38:59;95190.78;;;17.55;58.87
11971;BME280;6045;42.682;23.294;2023-10-09T01:41:27;95183.66;;;17.44;59.30
11971;BME280;6045;42.682;23.294;2023-10-09T01:43:59;95183.03;;;17.37;59.43
11971;BME280;6045;42.682;23.294;2023-10-09T01:46:38;95185.16;;;17.30;60.36
11971;BME280;6045;42.682;23.294;2023-10-09T01:49:05;95180.75;;;17.19;59.63
11971;BME280;6045;42.682;23.294;2023-10-09T01:51:42;95188.53;;;17.16;60.10
11971;BME280;6045;42.682;23.294;2023-10-09T01:54:10;95201.53;;;17.19;62.22
11971;BME280;6045;42.682;23.294;2023-10-09T01:56:42;95210.56;;;17.34;60.08
11971;BME280;6045;42.682;23.294;2023-10-09T01:59:12;95197.84;;;17.30;59.53
11971;BME280;6045;42.682;23.294;2023-10-09T02:01:41;95204.13;;;17.08;59.72
11971;BME280;6045;42.682;23.294;2023-10-09T02:04:13;95212.94;;;16.99;61.08
11971;BME280;6045;42.682;23.294;2023-10-09T02:06:45;95229.16;;;16.99;60.17
11971;BME280;6045;42.682;23.294;2023-10-09T02:09:18;95233.44;;;16.95;62.77
11971;BME280;6045;42.682;23.294;2023-10-09T02:11:52;95227.81;;;17.01;62.52
11971;BME280;6045;42.682;23.294;2023-10-09T02:14:19;95216.19;;;17.01;59.69
11971;BME280;6045;42.682;23.294;2023-10-09T02:16:47;95208.03;;;16.96;59.84
11971;BME280;6045;42.682;23.294;2023-10-09T02:19:54;95206.06;;;16.86;59.61
11971;BME280;6045;42.682;23.294;2023-10-09T02:22:25;95218.63;;;16.76;60.35
11971;BME280;6045;42.682;23.294;2023-10-09T02:24:52;95223.53;;;16.79;60.89
11971;BME280;6045;42.682;23.294;2023-10-09T02:27:30;95232.50;;;16.84;60.82
11971;BME280;6045;42.682;23.294;2023-10-09T02:30:11;95236.78;;;16.80;59.67
11971;BME280;6045;42.682;23.294;2023-10-09T02:32:53;95234.50;;;16.51;59.77
11971;BME280;6045;42.682;23.294;2023-10-09T02:35:33;95254.84;;;16.36;61.46
11971;BME280;6045;42.682;23.294;2023-10-09T02:38:05;95255.69;;;16.20;60.85
11971;BME280;6045;42.682;23.294;2023-10-09T02:40:40;95259.63;;;16.13;62.39
11971;BME280;6045;42.682;23.294;2023-10-09T02:43:26;95266.25;;;16.22;61.71
11971;BME280;6045;42.682;23.294;2023-10-09T02:45:53;95272.06;;;15.97;61.52
11971;BME280;6045;42.682;23.294;2023-10-09T02:48:19;95269.38;;;15.81;62.39
11971;BME280;6045;42.682;23.294;2023-10-09T02:50:52;95261.38;;;15.86;63.14
11971;BME280;6045;42.682;23.294;2023-10-09T02:53:19;95252.88;;;15.94;62.18
11971;BME280;6045;42.682;23.294;2023-10-09T02:55:55;95265.81;;;15.92;61.96
11971;BME280;6045;42.682;23.294;2023-10-09T02:58:38;95255.81;;;15.92;61.81
11971;BME280;6045;42.682;23.294;2023-10-09T03:01:09;95263.84;;;15.87;61.55
11971;BME280;6045;42.682;23.294;2023-10-09T03:03:36;95262.03;;;15.76;62.01
11971;BME280;6045;42.682;23.294;2023-10-09T03:06:05;95264.81;;;15.81;62.11
11971;BME280;6045;42.682;23.294;2023-10-09T03:08:36;95269.91;;;15.78;62.58
11971;BME280;6045;42.682;23.294;2023-10-09T03:11:03;95282.63;;;15.82;61.39
11971;BME280;6045;42.682;23.294;2023-10-09T03:13:31;95285.25;;;15.77;62.81
11971;BME280;6045;42.682;23.294;2023-10-09T03:15:59;95289.72;;;15.71;61.16
11971;BME280;6045;42.682;23.294;2023-10-09T03:18:27;95299.13;;;15.86;61.30
11971;BME280;6045;42.682;23.294;2023-10-09T03:20:54;95293.00;;;15.90;63.13
11971;BME280;6045;42.682;23.294;2023-10-09T03:23:22;95300.19;;;16.01;61.24
11971;BME280;6045;42.682;23.294;2023-10-09T03:25:49;95297.16;;;15.98;62.54
11971;BME280;6045;42.682;23.294;2023-10-09T03:28:16;95294.81;;;15.85;61.21
11971;BME280;6045;42.682;23.294;2023-10-09T03:30:43;95290.38;;;15.62;60.46
11971;BME280;6045;42.682;23.294;2023-10-09T03:33:13;95298.53;;;15.50;61.21
11971;BME280;6045;42.682;23.294;2023-10-09T03:35:41;95310.16;;;15.39;61.78
11971;BME280;6045;42.682;23.294;2023-10-09T03:38:08;95311.31;;;15.43;64.64
11971;BME280;6045;42.682;23.294;2023-10-09T03:40:42;95311.84;;;15.57;62.24
11971;BME280;6045;42.682;23.294;2023-10-09T03:43:09;95309.75;;;15.76;63.93
11971;BME280;6045;42.682;23.294;2023-10-09T03:45:37;95313.41;;;15.86;60.44
11971;BME280;6045;42.682;23.294;2023-10-09T03:48:11;95313.59;;;15.80;63.05
11971;BME280;6045;42.682;23.294;2023-10-09T03:50:46;95313.16;;;16.04;61.51
11971;BME280;6045;42.682;23.294;2023-10-09T03:53:13;95314.38;;;16.13;61.10
11971;BME280;6045;42.682;23.294;2023-10-09T03:55:41;95319.75;;;16.13;60.30
11971;BME280;6045;42.682;23.294;2023-10-09T03:58:09;95310.81;;;16.46;61.89
11971;BME280;6045;42.682;23.294;2023-10-09T04:00:37;95321.94;;;16.50;59.32
11971;BME280;6045;42.682;23.294;2023-10-09T04:03:10;95320.84;;;16.12;57.54
11971;BME280;6045;42.682;23.294;2023-10-09T04:05:39;95320.84;;;15.96;58.56
11971;BME280;6045;42.682;23.294;2023-10-09T04:08:09;95322.56;;;15.85;59.02
11971;BME280;6045;42.682;23.294;2023-10-09T04:10:39;95317.97;;;15.69;58.67
11971;BME280;6045;42.682;23.294;2023-10-09T04:13:19;95323.28;;;15.64;58.76
11971;BME280;6045;42.682;23.294;2023-10-09T04:15:52;95322.78;;;15.50;58.85
11971;BME280;6045;42.682;23.294;2023-10-09T04:18:20;95321.00;;;15.56;62.76
11971;BME280;6045;42.682;23.294;2023-10-09T04:20:54;95328.19;;;15.67;60.68
11971;BME280;6045;42.682;23.294;2023-10-09T04:23:38;95324.28;;;15.58;59.32
11971;BME280;6045;42.682;23.294;2023-10-09T04:26:19;95324.13;;;15.98;62.32
11971;BME280;6045;42.682;23.294;2023-10-09T04:28:47;95326.72;;;16.09;58.46
11971;BME280;6045;42.682;23.294;2023-10-09T04:31:18;95333.34;;;15.85;56.18
11971;BME280;6045;42.682;23.294;2023-10-09T04:33:46;95338.25;;;15.71;58.35
11971;BME280;6045;42.682;23.294;2023-10-09T04:36:19;95331.63;;;15.62;58.10
11971;BME280;6045;42.682;23.294;2023-10-09T04:38:54;95332.28;;;15.69;57.61
11971;BME280;6045;42.682;23.294;2023-10-09T04:41:41;95338.13;;;15.50;56.84
11971;BME280;6045;42.682;23.294;2023-10-09T04:44:42;95333.41;;;15.57;57.10
11971;BME280;6045;42.682;23.294;2023-10-09T04:47:25;95340.44;;;15.58;58.39
11971;BME280;6045;42.682;23.294;2023-10-09T04:50:01;95347.06;;;15.67;57.93
11971;BME280;6045;42.682;23.294;2023-10-09T04:52:37;95340.22;;;15.93;57.44
11971;BME280;6045;42.682;23.294;2023-10-09T04:55:17;95338.69;;;15.97;57.81
11971;BME280;6045;42.682;23.294;2023-10-09T04:57:51;95334.72;;;16.04;56.00
11971;BME280;6045;42.682;23.294;2023-10-09T05:00:29;95344.03;;;16.30;54.39
11971;BME280;6045;42.682;23.294;2023-10-09T05:03:20;95349.28;;;16.36;52.33
11971;BME280;6045;42.682;23.294;2023-10-09T05:05:55;95355.72;;;16.35;54.70
11971;BME280;6045;42.682;23.294;2023-10-09T05:08:26;95360.22;;;16.30;52.43
11971;BME280;6045;42.682;23.294;2023-10-09T05:10:56;95363.09;;;16.23;52.67
11971;BME280;6045;42.682;23.294;2023-10-09T05:13:41;95353.44;;;16.27;52.46
11971;BME280;6045;42.682;23.294;2023-10-09T05:16:13;95356.94;;;16.44;50.93
11971;BME280;6045;42.682;23.294;2023-10-09T05:18:44;95352.50;;;16.72;51.13
11971;BME280;6045;42.682;23.294;2023-10-09T05:21:21;95357.16;;;16.98;50.30
11971;BME280;6045;42.682;23.294;2023-10-09T05:24:06;95360.03;;;17.13;49.47
11971;BME280;6045;42.682;23.294;2023-10-09T05:26:49;95360.25;;;17.06;48.17
11971;BME280;6045;42.682;23.294;2023-10-09T05:29:19;95372.50;;;17.14;52.64
11971;BME280;6045;42.682;23.294;2023-10-09T05:32:02;95383.97;;;17.04;49.99
11971;BME280;6045;42.682;23.294;2023-10-09T05:34:31;95386.63;;;17.21;48.75
11971;BME280;6045;42.682;23.294;2023-10-09T05:37:21;95380.97;;;17.98;45.22
11971;BME280;6045;42.682;23.294;2023-10-09T05:39:50;95384.22;;;18.58;44.65
11971;BME280;6045;42.682;23.294;2023-10-09T05:42:45;95384.00;;;19.22;41.77
11971;BME280;6045;42.682;23.294;2023-10-09T05:45:23;95392.88;;;19.64;42.29
11971;BME280;6045;42.682;23.294;2023-10-09T05:48:20;95406.50;;;19.89;41.72
11971;BME280;6045;42.682;23.294;2023-10-09T05:51:06;95416.53;;;19.94;40.78
11971;BME280;6045;42.682;23.294;2023-10-09T05:54:00;95419.63;;;20.53;38.93
11971;BME280;6045;42.682;23.294;2023-10-09T05:57:08;95417.78;;;21.57;44.08
11971;BME280;6045;42.682;23.294;2023-10-09T05:59:53;95418.19;;;21.90;39.38
11971;BME280;6045;42.682;23.294;2023-10-09T06:02:37;95424.41;;;22.39;42.39
11971;BME280;6045;42.682;23.294;2023-10-09T06:05:23;95432.00;;;22.81;38.35
11971;BME280;6045;42.682;23.294;2023-10-09T06:08:17;95425.69;;;23.14;38.40
11971;BME280;6045;42.682;23.294;2023-10-09T06:10:50;95426.16;;;23.92;37.34
11971;BME280;6045;42.682;23.294;2023-10-09T06:13:31;95437.03;;;23.97;38.05
11971;BME280;6045;42.682;23.294;2023-10-09T06:16:04;95438.56;;;24.03;33.54
11971;BME280;6045;42.682;23.294;2023-10-09T06:18:46;95449.41;;;24.51;31.17
11971;BME280;6045;42.682;23.294;2023-10-09T06:21:34;95441.88;;;24.00;36.52
11971;BME280;6045;42.682;23.294;2023-10-09T06:24:19;95440.00;;;24.75;36.10
11971;BME280;6045;42.682;23.294;2023-10-09T06:26:49;95439.09;;;25.12;30.38
11971;BME280;6045;42.682;23.294;2023-10-09T06:29:32;95449.09;;;23.91;30.10
11971;BME280;6045;42.682;23.294;2023-10-09T06:32:02;95456.03;;;23.07;33.36
11971;BME280;6045;42.682;23.294;2023-10-09T06:34:50;95464.31;;;22.20;32.99
11971;BME280;6045;42.682;23.294;2023-10-09T06:37:19;95459.44;;;22.12;33.14
11971;BME280;6045;42.682;23.294;2023-10-09T06:40:00;95451.09;;;22.42;33.01
11971;BME280;6045;42.682;23.294;2023-10-09T06:42:44;95448.81;;;21.51;33.82
11971;BME280;6045;42.682;23.294;2023-10-09T06:45:17;95452.53;;;21.86;33.42
11971;BME280;6045;42.682;23.294;2023-10-09T06:47:47;95449.03;;;22.24;36.51
11971;BME280;6045;42.682;23.294;2023-10-09T06:50:22;95458.28;;;23.00;32.99
11971;BME280;6045;42.682;23.294;2023-10-09T06:53:09;95457.41;;;23.39;34.65
11971;BME280;6045;42.682;23.294;2023-10-09T06:55:54;95463.31;;;23.46;31.39
11971;BME280;6045;42.682;23.294;2023-10-09T06:58:30;95450.63;;;22.69;30.92
11971;BME280;6045;42.682;23.294;2023-10-09T07:01:07;95447.72;;;22.16;31.27
11971;BME280;6045;42.682;23.294;2023-10-09T07:03:54;95448.06;;;21.41;31.95
11971;BME280;6045;42.682;23.294;2023-10-09T07:06:26;95452.09;;;21.43;31.87
11971;BME280;6045;42.682;23.294;2023-10-09T07:09:08;95459.13;;;21.64;31.53
11971;BME280;6045;42.682;23.294;2023-10-09T07:11:45;95462.94;;;21.63;33.54
11971;BME280;6045;42.682;23.294;2023-10-09T07:14:24;95459.13;;;21.59;32.39
11971;BME280;6045;42.682;23.294;2023-10-09T07:17:09;95465.44;;;21.45;36.19
11971;BME280;6045;42.682;23.294;2023-10-09T07:19:47;95456.84;;;21.81;31.69
11971;BME280;6045;42.682;23.294;2023-10-09T07:22:32;95454.09;;;22.40;33.21
11971;BME280;6045;42.682;23.294;2023-10-09T07:25:07;95458.22;;;22.77;30.28
11971;BME280;6045;42.682;23.294;2023-10-09T07:27:53;95467.84;;;22.59;30.10
11971;BME280;6045;42.682;23.294;2023-10-09T07:30:21;95468.66;;;22.60;32.31
11971;BME280;6045;42.682;23.294;2023-10-09T07:33:04;95466.81;;;23.17;30.18
11971;BME280;6045;42.682;23.294;2023-10-09T07:35:43;95458.81;;;23.31;29.21
11971;BME280;6045;42.682;23.294;2023-10-09T07:38:16;95458.00;;;22.68;29.17
11971;BME280;6045;42.682;23.294;2023-10-09T07:40:47;95459.09;;;22.67;30.26
11971;BME280;6045;42.682;23.294;2023-10-09T07:43:21;95453.59;;;23.35;29.62
11971;BME280;6045;42.682;23.294;2023-10-09T07:45:52;95462.91;;;23.00;28.87
11971;BME280;6045;42.682;23.294;2023-10-09T07:48:36;95457.88;;;22.83;29.21
11971;BME280;6045;42.682;23.294;2023-10-09T07:51:14;95466.34;;;22.82;28.42
11971;BME280;6045;42.682;23.294;2023-10-09T07:53:40;95466.97;;;22.74;28.33
11971;BME280;6045;42.682;23.294;2023-10-09T07:56:11;95473.69;;;22.86;28.36
11971;BME280;6045;42.682;23.294;2023-10-09T07:58:39;95461.28;;;23.56;28.94
11971;BME280;6045;42.682;23.294;2023-10-09T08:01:13;95464.31;;;24.21;28.34
11971;BME280;6045;42.682;23.294;2023-10-09T08:03:48;95461.72;;;24.11;29.11
11971;BME280;6045;42.682;23.294;2023-10-09T08:06:23;95473.16;;;24.69;28.31
11971;BME280;6045;42.682;23.294;2023-10-09T08:09:04;95468.38;;;24.79;26.39
11971;BME280;6045;42.682;23.294;2023-10-09T08:12:13;95469.78;;;25.41;30.12
11971;BME280;6045;42.682;23.294;2023-10-09T08:14:57;95469.06;;;25.36;30.65
11971;BME280;6045;42.682;23.294;2023-10-09T08:17:38;95469.53;;;24.92;25.45
11971;BME280;6045;42.682;23.294;2023-10-09T08:20:05;95469.03;;;24.15;27.24
11971;BME280;6045;42.682;23.294;2023-10-09T08:22:38;95468.09;;;24.25;28.98
11971;BME280;6045;42.682;23.294;2023-10-09T08:25:09;95471.41;;;24.40;26.28
11971;BME280;6045;42.682;23.294;2023-10-09T08:27:53;95468.00;;;24.48;30.76
11971;BME280;6045;42.682;23.294;2023-10-09T08:30:40;95457.91;;;25.00;29.79
11971;BME280;6045;42.682;23.294;2023-10-09T08:33:28;95446.91;;;25.92;26.20
11971;BME280;6045;42.682;23.294;2023-10-09T08:36:07;95442.41;;;26.09;24.09
11971;BME280;6045;42.682;23.294;2023-10-09T08:38:35;95429.59;;;25.37;24.43
11971;BME280;6045;42.682;23.294;2023-10-09T08:41:11;95422.97;;;24.27;25.56
11971;BME280;6045;42.682;23.294;2023-10-09T08:43:52;95422.38;;;24.49;26.52
11971;BME280;6045;42.682;23.294;2023-10-09T08:46:20;95429.50;;;24.82;25.33
11971;BME280;6045;42.682;23.294;2023-10-09T08:48:48;95415.34;;;25.53;24.74
11971;BME280;6045;42.682;23.294;2023-10-09T08:51:24;95409.03;;;25.94;24.84
11971;BME280;6045;42.682;23.294;2023-10-09T08:53:51;95412.97;;;26.15;24.91
11971;BME280;6045;42.682;23.294;2023-10-09T08:56:19;95400.22;;;26.46;24.69
11971;BME280;6045;42.682;23.294;2023-10-09T08:58:54;95409.84;;;27.01;25.62
11971;BME280;6045;42.682;23.294;2023-10-09T09:01:21;95411.19;;;27.12;23.73
11971;BME280;6045;42.682;23.294;2023-10-09T09:03:51;95402.69;;;27.23;23.00
11971;BME280;6045;42.682;23.294;2023-10-09T09:06:21;95405.44;;;27.23;24.15
11971;BME280;6045;42.682;23.294;2023-10-09T09:08:49;95410.38;;;27.82;21.78
11971;BME280;6045;42.682;23.294;2023-10-09T09:11:20;95407.47;;;28.35;21.29
11971;BME280;6045;42.682;23.294;2023-10-09T09:14:02;95418.16;;;28.62;23.57
11971;BME280;6045;42.682;23.294;2023-10-09T09:16:31;95417.19;;;28.84;21.28
11971;BME280;6045;42.682;23.294;2023-10-09T09:19:00;95424.63;;;28.83;22.12
11971;BME280;6045;42.682;23.294;2023-10-09T09:21:29;95410.09;;;28.66;22.11
11971;BME280;6045;42.682;23.294;2023-10-09T09:24:02;95415.22;;;29.19;21.98
11971;BME280;6045;42.682;23.294;2023-10-09T09:26:42;95411.72;;;29.47;20.10
11971;BME280;6045;42.682;23.294;2023-10-09T09:29:13;95408.97;;;29.47;21.20
11971;BME280;6045;42.682;23.294;2023-10-09T09:31:52;95406.59;;;29.29;20.69
11971;BME280;6045;42.682;23.294;2023-10-09T09:34:19;95397.19;;;29.38;19.68
11971;BME280;6045;42.682;23.294;2023-10-09T09:36:55;95392.66;;;29.17;20.55
11971;BME280;6045;42.682;23.294;2023-10-09T09:39:23;95395.59;;;29.11;22.61
11971;BME280;6045;42.682;23.294;2023-10-09T09:41:57;95390.38;;;29.36;19.03
11971;BME280;6045;42.682;23.294;2023-10-09T09:44:33;95386.47;;;29.45;20.34
11971;BME280;6045;42.682;23.294;2023-10-09T09:47:09;95383.28;;;29.35;19.43
11971;BME280;6045;42.682;23.294;2023-10-09T09:49:41;95381.75;;;28.82;21.03
11971;BME280;6045;42.682;23.294;2023-10-09T09:52:08;95386.91;;;28.84;19.26
11971;BME280;6045;42.682;23.294;2023-10-09T09:54:37;95386.25;;;29.04;20.75
11971;BME280;6045;42.682;23.294;2023-10-09T09:57:05;95378.94;;;29.08;18.90
11971;BME280;6045;42.682;23.294;2023-10-09T09:59:39;95370.56;;;28.87;19.35
11971;BME280;6045;42.682;23.294;2023-10-09T10:02:20;95371.13;;;29.27;19.77
11971;BME280;6045;42.682;23.294;2023-10-09T10:04:51;95367.53;;;29.35;19.02
11971;BME280;6045;42.682;23.294;2023-10-09T10:07:20;95359.75;;;29.37;20.03
11971;BME280;6045;42.682;23.294;2023-10-09T10:09:48;95350.75;;;29.87;20.04
11971;BME280;6045;42.682;23.294;2023-10-09T10:12:49;95344.47;;;30.36;20.35
11971;BME280;6045;42.682;23.294;2023-10-09T10:15:57;95345.31;;;30.28;17.81
11971;BME280;6045;42.682;23.294;2023-10-09T10:18:30;95332.78;;;30.51;18.67
11971;BME280;6045;42.682;23.294;2023-10-09T10:21:15;95325.75;;;30.95;17.91
11971;BME280;6045;42.682;23.294;2023-10-09T10:23:44;95323.38;;;31.18;16.25
11971;BME280;6045;42.682;23.294;2023-10-09T10:26:17;95310.69;;;31.04;16.62
11971;BME280;6045;42.682;23.294;2023-10-09T10:29:15;95302.16;;;30.97;18.42
11971;BME280;6045;42.682;23.294;2023-10-09T10:31:57;95296.56;;;31.18;17.66
11971;BME280;6045;42.682;23.294;2023-10-09T10:34:26;95289.81;;;31.64;17.26
11971;BME280;6045;42.682;23.294;2023-10-09T10:36:53;95291.59;;;32.08;18.43
11971;BME280;6045;42.682;23.294;2023-10-09T10:39:25;95285.38;;;31.87;17.97
11971;BME280;6045;42.682;23.294;2023-10-09T10:42:09;95288.34;;;32.18;17.92
11971;BME280;6045;42.682;23.294;2023-10-09T10:44:41;95280.66;;;32.12;19.61
11971;BME280;6045;42.682;23.294;2023-10-09T10:47:13;95271.28;;;32.28;18.73
11971;BME280;6045;42.682;23.294;2023-10-09T10:49:51;95263.31;;;32.67;18.07
11971;BME280;6045;42.682;23.294;2023-10-09T10:52:24;95273.28;;;32.43;16.53
11971;BME280;6045;42.682;23.294;2023-10-09T10:55:11;95256.06;;;32.78;17.17
11971;BME280;6045;42.682;23.294;2023-10-09T10:58:15;95260.97;;;33.28;16.59
11971;BME280;6045;42.682;23.294;2023-10-09T11:00:52;95251.75;;;33.24;17.89
11971;BME280;6045;42.682;23.294;2023-10-09T11:03:46;95250.28;;;32.83;17.44
11971;BME280;6045;42.682;23.294;2023-10-09T11:06:25;95257.13;;;32.46;16.95
11971;BME280;6045;42.682;23.294;2023-10-09T11:09:01;95261.16;;;32.08;17.24
11971;BME280;6045;42.682;23.294;2023-10-09T11:11:36;95245.06;;;31.86;17.83
11971;BME280;6045;42.682;23.294;2023-10-09T11:14:08;95239.25;;;32.15;17.78
11971;BME280;6045;42.682;23.294;2023-10-09T11:16:40;95227.44;;;32.03;16.92
11971;BME280;6045;42.682;23.294;2023-10-09T11:19:19;95221.38;;;31.00;17.42
11971;BME280;6045;42.682;23.294;2023-10-09T11:21:55;95202.59;;;31.42;17.87
11971;BME280;6045;42.682;23.294;2023-10-09T11:24:46;95205.59;;;31.61;17.42
11971;BME280;6045;42.682;23.294;2023-10-09T11:27:26;95203.66;;;31.50;18.95
11971;BME280;6045;42.682;23.294;2023-10-09T11:29:58;95203.34;;;31.91;17.25
11971;BME280;6045;42.682;23.294;2023-10-09T11:32:31;95196.69;;;31.68;17.97
11971;BME280;6045;42.682;23.294;2023-10-09T11:35:11;95208.88;;;32.03;17.05
11971;BME280;6045;42.682;23.294;2023-10-09T11:37:40;95205.13;;;32.67;17.50
11971;BME280;6045;42.682;23.294;2023-10-09T11:40:27;95202.00;;;32.84;16.94
11971;BME280;6045;42.682;23.294;2023-10-09T11:43:00;95201.66;;;32.85;16.44
11971;BME280;6045;42.682;23.294;2023-10-09T11:45:27;95199.72;;;33.33;17.70
11971;BME280;6045;42.682;23.294;2023-10-09T11:47:56;95189.56;;;32.34;16.00
11971;BME280;6045;42.682;23.294;2023-10-09T11:50:43;95176.91;;;32.33;18.29
11971;BME280;6045;42.682;23.294;2023-10-09T11:53:16;95171.97;;;32.70;16.67
11971;BME280;6045;42.682;23.294;2023-10-09T11:55:59;95174.31;;;32.53;17.76
11971;BME280;6045;42.682;23.294;2023-10-09T11:58:26;95164.59;;;32.31;17.07
11971;BME280;6045;42.682;23.294;2023-10-09T12:00:53;95150.72;;;32.90;17.80
11971;BME280;6045;42.682;23.294;2023-10-09T12:03:24;95152.44;;;33.26;16.38
11971;BME280;6045;42.682;23.294;2023-10-09T12:05:55;95148.72;;;33.37;16.59
11971;BME280;6045;42.682;23.294;2023-10-09T12:08:23;95140.75;;;33.36;16.63
11971;BME280;6045;42.682;23.294;2023-10-09T12:10:53;95136.97;;;33.59;15.74
11971;BME280;6045;42.682;23.294;2023-10-09T12:13:21;95131.22;;;33.68;15.92
11971;BME280;6045;42.682;23.294;2023-10-09T12:15:49;95128.31;;;33.45;17.17
11971;BME280;6045;42.682;23.294;2023-10-09T12:18:17;95132.16;;;33.95;16.06
11971;BME280;6045;42.682;23.294;2023-10-09T12:20:44;95121.47;;;34.12;15.37
11971;BME280;6045;42.682;23.294;2023-10-09T12:23:18;95133.94;;;33.84;15.13
11971;BME280;6045;42.682;23.294;2023-10-09T12:25:45;95125.53;;;33.61;16.23
11971;BME280;6045;42.682;23.294;2023-10-09T12:28:12;95112.69;;;33.37;15.74
11971;BME280;6045;42.682;23.294;2023-10-09T12:30:40;95111.50;;;33.38;16.15
11971;BME280;6045;42.682;23.294;2023-10-09T12:33:07;95109.16;;;32.74;15.50
11971;BME280;6045;42.682;23.294;2023-10-09T12:35:38;95104.50;;;32.47;15.77
11971;BME280;6045;42.682;23.294;2023-10-09T12:38:06;95109.44;;;32.54;17.17
11971;BME280;6045;42.682;23.294;2023-10-09T12:40:37;95104.22;;;31.65;14.08
11971;BME280;6045;42.682;23.294;2023-10-09T12:43:06;95087.69;;;31.81;15.29
11971;BME280;6045;42.682;23.294;2023-10-09T12:45:41;95091.28;;;32.40;15.58
11971;BME280;6045;42.682;23.294;2023-10-09T12:48:08;95090.31;;;32.80;14.83
11971;BME280;6045;42.682;23.294;2023-10-09T12:50:35;95089.88;;;32.62;14.09
11971;BME280;6045;42.682;23.294;2023-10-09T12:53:07;95085.47;;;32.30;15.65
11971;BME280;6045;42.682;23.294;2023-10-09T12:55:37;95067.34;;;32.48;15.26
11971;BME280;6045;42.682;23.294;2023-10-09T12:58:06;95081.44;;;32.12;15.03
11971;BME280;6045;42.682;23.294;2023-10-09T13:00:34;95082.06;;;32.05;14.87
11971;BME280;6045;42.682;23.294;2023-10-09T13:03:04;95072.28;;;31.68;13.98
11971;BME280;6045;42.682;23.294;2023-10-09T13:05:43;95078.94;;;31.79;15.22
11971;BME280;6045;42.682;23.294;2023-10-09T13:08:18;95067.50;;;31.53;14.27
11971;BME280;6045;42.682;23.294;2023-10-09T13:10:48;95058.63;;;31.07;14.84
11971;BME280;6045;42.682;23.294;2023-10-09T13:13:25;95063.97;;;31.28;14.66
11971;BME280;6045;42.682;23.294;2023-10-09T13:16:08;95052.88;;;31.80;15.00
11971;BME280;6045;42.682;23.294;2023-10-09T13:18:38;95048.88;;;32.68;13.81
11971;BME280;6045;42.682;23.294;2023-10-09T13:21:05;95038.13;;;32.82;13.18
11971;BME280;6045;42.682;23.294;2023-10-09T13:23:32;95040.56;;;32.68;13.19
11971;BME280;6045;42.682;23.294;2023-10-09T13:26:07;95035.09;;;32.87;13.93
11971;BME280;6045;42.682;23.294;2023-10-09T13:28:48;95026.44;;;33.23;14.13
11971;BME280;6045;42.682;23.294;2023-10-09T13:31:15;95022.91;;;33.07;14.17
11971;BME280;6045;42.682;23.294;2023-10-09T13:33:44;95024.19;;;32.94;13.73
11971;BME280;6045;42.682;23.294;2023-10-09T13:36:12;95029.44;;;32.99;14.22
11971;BME280;6045;42.682;23.294;2023-10-09T13:38:45;95032.22;;;32.99;14.45
11971;BME280;6045;42.682;23.294;2023-10-09T13:41:13;95026.84;;;33.06;13.81